createdAt,value
2023-03-26T00:02:09.645Z,98987.86
2023-03-26T00:04:38.636Z,98980.02
2023-03-26T00:07:10.803Z,98986.29
2023-03-26T00:09:39.288Z,98982.55
2023-03-26T00:12:11.944Z,98980.14
2023-03-26T00:14:40.996Z,98975.16
2023-03-26T00:17:09.429Z,98967.63
2023-03-26T00:19:39.328Z,98968.06
2023-03-26T00:22:08.306Z,98963.41
2023-03-26T00:24:37.702Z,98959.93
2023-03-26T00:27:08.966Z,98959.46
2023-03-26T00:29:37.446Z,98960.23
2023-03-26T00:32:06.392Z,98953.71
2023-03-26T00:34:37.180Z,98950.10
2023-03-26T00:37:05.736Z,98948.00
2023-03-26T00:39:42.965Z,98950.69
2023-03-26T00:42:14.994Z,98950.98
2023-03-26T00:44:43.386Z,98951.85
2023-03-26T00:47:13.351Z,98954.95
2023-03-26T00:49:41.740Z,98949.06
2023-03-26T00:52:10.155Z,98951.70
2023-03-26T00:54:38.549Z,98956.16
2023-03-26T00:57:07.007Z,98958.86
2023-03-26T00:59:36.382Z,98949.25
2023-03-26T01:02:04.805Z,98953.56
2023-03-26T01:04:35.344Z,98955.77
2023-03-26T01:07:10.148Z,98955.52
2023-03-26T01:09:43.067Z,98951.73
2023-03-26T01:12:22.310Z,98949.01
2023-03-26T01:14:52.106Z,98945.83
2023-03-26T01:17:22.133Z,98942.52
2023-03-26T01:19:57.139Z,98943.64
2023-03-26T01:22:26.881Z,98940.16
2023-03-26T01:24:56.830Z,98940.29
2023-03-26T01:27:36.099Z,98939.70
2023-03-26T01:30:29.378Z,98934.02
2023-03-26T01:33:16.813Z,98933.89
2023-03-26T01:35:53.573Z,98934.99
2023-03-26T01:38:35.716Z,98934.82
2023-03-26T01:41:08.131Z,98930.11
2023-03-26T01:43:50.378Z,98934.13
2023-03-26T01:46:19.591Z,98934.39
2023-03-26T01:48:49.076Z,98930.30
2023-03-26T01:51:47.831Z,98929.20
2023-03-26T01:54:19.431Z,98924.08
2023-03-26T01:57:03.845Z,98924.84
2023-03-26T02:00:12.922Z,98919.84
2023-03-26T02:03:03.892Z,98919.85
2023-03-26T02:05:40.851Z,98916.96
2023-03-26T02:08:12.145Z,98916.94
2023-03-26T02:10:44.362Z,98915.10
2023-03-26T02:13:16.295Z,98918.27
2023-03-26T02:16:02.338Z,98915.47
2023-03-26T02:18:39.127Z,98923.52
2023-03-26T02:21:21.890Z,98925.94
2023-03-26T02:23:58.093Z,98929.25
2023-03-26T02:26:26.529Z,98938.42
2023-03-26T02:29:04.786Z,98943.75
2023-03-26T02:31:38.861Z,98947.17
2023-03-26T02:34:07.161Z,98948.61
2023-03-26T02:36:37.478Z,98953.25
2023-03-26T02:39:06.014Z,98955.26
2023-03-26T02:41:38.345Z,98959.06
2023-03-26T02:44:11.806Z,98965.99
2023-03-26T02:46:58.811Z,98968.59
2023-03-26T02:49:43.678Z,98971.76
2023-03-26T02:52:17.310Z,98969.23
2023-03-26T02:54:47.464Z,98969.80
2023-03-26T02:57:19.842Z,98976.44
2023-03-26T02:59:59.866Z,98987.98
2023-03-26T03:02:40.401Z,98997.60
2023-03-26T03:05:32.879Z,98999.00
2023-03-26T03:08:22.690Z,99005.57
2023-03-26T03:11:09.523Z,99011.73
2023-03-26T03:13:45.938Z,99026.20
2023-03-26T03:16:17.702Z,99039.23
2023-03-26T03:18:47.792Z,99044.05
2023-03-26T03:21:16.360Z,99051.06
2023-03-26T03:23:44.994Z,99055.91
2023-03-26T03:26:21.851Z,99060.30
2023-03-26T03:28:57.707Z,99066.54
2023-03-26T03:31:27.363Z,99068.10
2023-03-26T03:33:59.787Z,99078.02
2023-03-26T03:36:33.289Z,99083.16
2023-03-26T03:39:14.981Z,99086.41
2023-03-26T03:41:46.308Z,99088.05
2023-03-26T03:44:17.600Z,99088.70
2023-03-26T03:46:49.433Z,99096.53
2023-03-26T03:49:19.935Z,99100.96
2023-03-26T03:51:49.055Z,99106.67
2023-03-26T03:54:31.830Z,99107.19
2023-03-26T03:57:18.942Z,99109.65
2023-03-26T04:00:11.998Z,99108.67
2023-03-26T04:02:50.387Z,99109.94
2023-03-26T04:05:19.013Z,99118.33
2023-03-26T04:07:51.568Z,99118.98
2023-03-26T04:10:28.688Z,99119.63
2023-03-26T04:13:21.796Z,99124.56
2023-03-26T04:15:56.768Z,99125.52
2023-03-26T04:18:32.536Z,99126.91
2023-03-26T04:21:07.507Z,99127.45
2023-03-26T04:23:36.872Z,99130.73
2023-03-26T04:26:20.017Z,99136.00
2023-03-26T04:29:11.996Z,99137.05
2023-03-26T04:31:40.593Z,99142.77
2023-03-26T04:34:18.784Z,99146.63
2023-03-26T04:36:55.930Z,99161.10
2023-03-26T04:39:29.493Z,99157.27
2023-03-26T04:42:20.140Z,99161.84
2023-03-26T04:45:05.864Z,99167.17
2023-03-26T04:47:37.346Z,99170.28
2023-03-26T04:50:08.263Z,99171.35
2023-03-26T04:52:37.956Z,99171.45
2023-03-26T04:55:42.193Z,99175.44
2023-03-26T04:58:17.730Z,99172.85
2023-03-26T05:01:09.974Z,99171.91
2023-03-26T05:03:42.149Z,99174.44
2023-03-26T05:06:12.751Z,99175.50
2023-03-26T05:08:42.035Z,99179.77
2023-03-26T05:11:15.758Z,99185.41
2023-03-26T05:13:44.638Z,99187.74
2023-03-26T05:16:18.833Z,99188.15
2023-03-26T05:18:55.628Z,99196.96
2023-03-26T05:21:25.120Z,99200.73
2023-03-26T05:23:53.492Z,99207.51
2023-03-26T05:26:23.228Z,99215.58
2023-03-26T05:28:52.834Z,99217.80
2023-03-26T05:31:41.561Z,99217.55
2023-03-26T05:34:10.868Z,99213.77
2023-03-26T05:36:44.278Z,99215.62
2023-03-26T05:39:46.096Z,99218.62
2023-03-26T05:42:52.961Z,99216.35
2023-03-26T05:45:48.158Z,99213.75
2023-03-26T05:48:23.282Z,99213.52
2023-03-26T05:50:53.096Z,99219.66
2023-03-26T05:53:28.814Z,99225.68
2023-03-26T05:56:20.862Z,99227.05
2023-03-26T05:59:08.385Z,99238.83
2023-03-26T06:02:10.816Z,99238.08
2023-03-26T06:04:46.201Z,99241.09
2023-03-26T06:07:40.735Z,99235.16
2023-03-26T06:10:18.274Z,99235.71
2023-03-26T06:12:49.811Z,99233.73
2023-03-26T06:15:18.708Z,99236.44
2023-03-26T06:17:59.326Z,99239.90
2023-03-26T06:20:58.044Z,99235.15
2023-03-26T06:23:59.627Z,99227.23
2023-03-26T06:26:48.335Z,99227.23
2023-03-26T06:29:26.237Z,99232.14
2023-03-26T06:32:20.199Z,99231.56
2023-03-26T06:34:55.597Z,99231.93
2023-03-26T06:37:24.089Z,99232.59
2023-03-26T06:39:58.247Z,99232.75
2023-03-26T06:43:07.478Z,99239.51
2023-03-26T06:45:52.076Z,99237.35
2023-03-26T06:48:43.537Z,99240.77
2023-03-26T06:51:32.330Z,99243.79
2023-03-26T06:54:19.278Z,99244.11
2023-03-26T06:56:57.381Z,99248.81
2023-03-26T06:59:58.523Z,99245.08
2023-03-26T07:03:06.420Z,99242.84
2023-03-26T07:05:53.979Z,99242.98
2023-03-26T07:08:52.069Z,99244.55
2023-03-26T07:11:39.076Z,99241.06
2023-03-26T07:14:28.244Z,99239.56
2023-03-26T07:17:06.842Z,99241.02
2023-03-26T07:19:47.981Z,99240.75
2023-03-26T07:22:22.114Z,99242.23
2023-03-26T07:25:17.652Z,99236.32
2023-03-26T07:28:00.151Z,99237.27
2023-03-26T07:31:05.011Z,99238.02
2023-03-26T07:34:13.942Z,99238.30
2023-03-26T07:37:02.124Z,99236.73
2023-03-26T07:39:39.728Z,99238.84
2023-03-26T07:42:42.279Z,99241.66
2023-03-26T07:45:45.218Z,99241.73
2023-03-26T07:48:36.817Z,99249.11
2023-03-26T07:51:28.684Z,99250.06
2023-03-26T07:54:11.037Z,99254.05
2023-03-26T07:57:56.089Z,99255.35
2023-03-26T08:00:49.079Z,99254.50
2023-03-26T08:03:27.863Z,99259.88
2023-03-26T08:06:12.380Z,99260.69
2023-03-26T08:09:04.828Z,99261.77
2023-03-26T08:11:58.888Z,99269.22
2023-03-26T08:14:33.618Z,99275.71
2023-03-26T08:17:35.202Z,99275.11
2023-03-26T08:20:34.543Z,99273.31
2023-03-26T08:23:14.134Z,99273.89
2023-03-26T08:25:49.440Z,99273.95
2023-03-26T08:28:28.082Z,99273.02
2023-03-26T08:30:58.013Z,99272.44
2023-03-26T08:33:28.459Z,99271.39
2023-03-26T08:35:56.917Z,99274.77
2023-03-26T08:38:26.296Z,99276.42
2023-03-26T08:41:14.966Z,99277.71
2023-03-26T08:43:44.126Z,99277.20
2023-03-26T08:46:12.503Z,99272.86
2023-03-26T08:49:13.060Z,99267.39
2023-03-26T08:51:51.245Z,99264.14
2023-03-26T08:54:58.453Z,99262.23
2023-03-26T08:57:48.835Z,99261.20
2023-03-26T09:00:26.662Z,99267.19
2023-03-26T09:03:41.593Z,99264.14
2023-03-26T09:06:24.276Z,99258.88
2023-03-26T09:09:22.095Z,99258.08
2023-03-26T09:12:11.827Z,99261.40
2023-03-26T09:15:00.493Z,99260.02
2023-03-26T09:17:39.211Z,99257.35
2023-03-26T09:20:11.396Z,99253.66
2023-03-26T09:22:48.554Z,99255.20
2023-03-26T09:25:34.897Z,99258.79
2023-03-26T09:28:47.507Z,99258.40
2023-03-26T09:31:32.198Z,99253.77
2023-03-26T09:34:26.494Z,99253.38
2023-03-26T09:36:57.682Z,99253.58
2023-03-26T09:39:37.755Z,99248.52
2023-03-26T09:42:09.675Z,99244.45
2023-03-26T09:44:44.576Z,99245.70
2023-03-26T09:47:35.237Z,99244.70
2023-03-26T09:50:26.814Z,99240.92
2023-03-26T09:53:33.275Z,99237.55
2023-03-26T09:56:21.228Z,99240.77
2023-03-26T09:59:17.105Z,99239.08
2023-03-26T10:02:04.958Z,99236.60
2023-03-26T10:04:38.631Z,99237.89
2023-03-26T10:07:16.423Z,99231.96
2023-03-26T10:10:02.707Z,99228.31
2023-03-26T10:13:14.542Z,99230.04
2023-03-26T10:15:59.087Z,99235.37
2023-03-26T10:18:33.400Z,99240.43
2023-03-26T10:21:17.256Z,99243.86
2023-03-26T10:23:48.616Z,99252.73
2023-03-26T10:26:20.389Z,99252.51
2023-03-26T10:29:02.558Z,99252.14
2023-03-26T10:31:47.025Z,99253.86
2023-03-26T10:34:28.144Z,99251.59
2023-03-26T10:37:06.629Z,99253.15
2023-03-26T10:40:10.378Z,99246.45
2023-03-26T10:43:16.864Z,99237.97
2023-03-26T10:46:00.703Z,99237.88
2023-03-26T10:48:51.592Z,99242.71
2023-03-26T10:51:44.981Z,99247.70
2023-03-26T10:54:23.570Z,99245.85
2023-03-26T10:56:52.718Z,99248.63
2023-03-26T10:59:21.564Z,99250.41
2023-03-26T11:02:00.852Z,99248.73
2023-03-26T11:04:36.806Z,99247.86
2023-03-26T11:07:29.237Z,99247.33
2023-03-26T11:10:10.568Z,99244.83
2023-03-26T11:13:07.212Z,99247.81
2023-03-26T11:15:55.869Z,99245.63
2023-03-26T11:18:36.984Z,99240.13
2023-03-26T11:21:32.580Z,99235.64
2023-03-26T11:24:18.398Z,99230.49
2023-03-26T11:27:15.363Z,99230.96
2023-03-26T11:30:27.805Z,99229.80
2023-03-26T11:33:02.681Z,99240.48
2023-03-26T11:35:42.524Z,99244.63
2023-03-26T11:38:13.966Z,99245.95
2023-03-26T11:40:43.902Z,99239.73
2023-03-26T11:43:25.189Z,99239.91
2023-03-26T11:45:54.278Z,99235.19
2023-03-26T11:48:25.308Z,99231.07
2023-03-26T11:51:07.615Z,99228.58
2023-03-26T11:53:39.563Z,99226.55
2023-03-26T11:56:17.488Z,99224.81
2023-03-26T11:59:08.576Z,99220.36
2023-03-26T12:02:10.303Z,99221.77
2023-03-26T12:04:40.873Z,99217.16
2023-03-26T12:07:21.328Z,99215.23
2023-03-26T12:09:53.765Z,99210.34
2023-03-26T12:12:24.917Z,99208.77
2023-03-26T12:14:53.349Z,99207.96
2023-03-26T12:17:31.436Z,99208.33
2023-03-26T12:20:01.343Z,99215.44
2023-03-26T12:22:36.466Z,99209.46
2023-03-26T12:25:16.480Z,99205.73
2023-03-26T12:28:17.549Z,99207.75
2023-03-26T12:30:59.730Z,99206.28
2023-03-26T12:33:30.081Z,99208.40
2023-03-26T12:35:58.529Z,99208.16
2023-03-26T12:38:35.960Z,99204.30
2023-03-26T12:41:07.075Z,99202.14
2023-03-26T12:44:55.070Z,99195.23
2023-03-26T12:47:55.363Z,99187.40
2023-03-26T12:49:23.985Z,99190.90
2023-03-26T12:51:58.629Z,99186.25
2023-03-26T12:54:46.295Z,99188.67
2023-03-26T12:57:23.041Z,99187.55
2023-03-26T13:00:01.289Z,99192.21
2023-03-26T13:03:06.015Z,99189.92
2023-03-26T13:05:57.118Z,99188.02
2023-03-26T13:08:52.426Z,99187.61
2023-03-26T13:11:33.596Z,99196.08
2023-03-26T13:14:21.416Z,99204.93
2023-03-26T13:16:59.972Z,99206.35
2023-03-26T13:19:45.400Z,99207.34
2023-03-26T13:22:45.979Z,99203.29
2023-03-26T13:25:24.393Z,99198.69
2023-03-26T13:28:17.474Z,99196.73
2023-03-26T13:30:55.106Z,99197.98
2023-03-26T13:33:54.974Z,99194.65
2023-03-26T13:36:46.931Z,99189.95
2023-03-26T13:39:15.277Z,99186.51
2023-03-26T13:42:18.540Z,99184.17
2023-03-26T13:45:12.131Z,99185.99
2023-03-26T13:47:48.313Z,99185.77
2023-03-26T13:50:25.307Z,99182.77
2023-03-26T13:52:56.284Z,99181.05
2023-03-26T13:55:41.328Z,99180.37
2023-03-26T13:58:34.605Z,99175.75
2023-03-26T14:01:26.410Z,99176.73
2023-03-26T14:04:04.570Z,99181.13
2023-03-26T14:06:46.802Z,99182.27
2023-03-26T14:09:18.339Z,99182.12
2023-03-26T14:12:06.732Z,99181.73
2023-03-26T14:14:55.151Z,99181.09
2023-03-26T14:17:47.718Z,99180.11
2023-03-26T14:20:50.014Z,99182.67
2023-03-26T14:23:28.802Z,99178.67
2023-03-26T14:26:48.508Z,99183.91
2023-03-26T14:29:56.599Z,99187.27
2023-03-26T14:32:48.587Z,99182.17
2023-03-26T14:35:17.409Z,99183.11
2023-03-26T14:38:16.634Z,99181.66
2023-03-26T14:41:13.333Z,99175.86
2023-03-26T14:43:53.317Z,99176.21
2023-03-26T14:47:00.942Z,99174.45
2023-03-26T14:49:52.176Z,99173.84
2023-03-26T14:52:51.830Z,99173.36
2023-03-26T14:55:49.056Z,99175.09
2023-03-26T14:58:30.086Z,99178.60
2023-03-26T15:01:49.626Z,99182.17
2023-03-26T15:04:20.862Z,99184.91
2023-03-26T15:07:19.060Z,99183.91
2023-03-26T15:09:57.001Z,99189.40
2023-03-26T15:12:47.358Z,99187.98
2023-03-26T15:15:43.444Z,99188.06
2023-03-26T15:18:42.905Z,99183.77
2023-03-26T15:21:34.429Z,99179.63
2023-03-26T15:24:25.792Z,99177.30
2023-03-26T15:27:18.986Z,99180.59
2023-03-26T15:30:13.219Z,99178.35
2023-03-26T15:33:18.354Z,99175.84
2023-03-26T15:36:14.195Z,99175.66
2023-03-26T15:39:07.989Z,99174.33
2023-03-26T15:41:41.643Z,99173.80
2023-03-26T15:44:29.200Z,99175.91
2023-03-26T15:47:17.151Z,99176.90
2023-03-26T15:49:52.912Z,99179.15
2023-03-26T15:52:26.230Z,99181.77
2023-03-26T15:55:16.809Z,99183.71
2023-03-26T15:57:55.048Z,99183.10
2023-03-26T16:00:29.413Z,99187.35
2023-03-26T16:03:14.767Z,99191.58
2023-03-26T16:06:16.026Z,99192.49
2023-03-26T16:09:05.971Z,99197.06
2023-03-26T16:11:51.219Z,99204.94
2023-03-26T16:14:35.099Z,99208.58
2023-03-26T16:17:08.218Z,99209.27
2023-03-26T16:19:50.517Z,99215.03
2023-03-26T16:22:43.915Z,99220.10
2023-03-26T16:25:30.914Z,99223.64
2023-03-26T16:28:40.355Z,99231.52
2023-03-26T16:31:39.259Z,99236.02
2023-03-26T16:34:54.283Z,99235.90
2023-03-26T16:37:58.341Z,99240.45
2023-03-26T16:40:29.937Z,99244.67
2023-03-26T16:43:18.668Z,99246.09
2023-03-26T16:46:14.879Z,99251.73
2023-03-26T16:49:04.165Z,99257.05
2023-03-26T16:52:08.741Z,99259.73
2023-03-26T16:54:57.308Z,99260.67
2023-03-26T16:57:39.132Z,99266.15
2023-03-26T17:00:27.825Z,99268.80
2023-03-26T17:03:08.802Z,99270.81
2023-03-26T17:05:51.342Z,99274.08
2023-03-26T17:08:57.839Z,99275.58
2023-03-26T17:11:56.879Z,99276.79
2023-03-26T17:15:06.675Z,99281.92
2023-03-26T17:18:05.823Z,99280.39
2023-03-26T17:21:30.058Z,99278.63
2023-03-26T17:24:57.509Z,99282.80
2023-03-26T17:27:53.612Z,99289.08
2023-03-26T17:31:16.142Z,99288.13
2023-03-26T17:33:49.099Z,99284.40
2023-03-26T17:36:37.090Z,99287.00
2023-03-26T17:39:42.100Z,99289.25
2023-03-26T17:42:34.378Z,99289.69
2023-03-26T17:45:20.744Z,99289.27
2023-03-26T17:47:59.506Z,99289.09
2023-03-26T17:50:54.975Z,99285.02
2023-03-26T17:53:34.249Z,99285.63
2023-03-26T17:56:14.313Z,99285.63
2023-03-26T17:58:44.936Z,99285.51
2023-03-26T18:01:20.069Z,99288.17
2023-03-26T18:03:51.513Z,99284.89
2023-03-26T18:06:48.397Z,99288.09
2023-03-26T18:09:26.422Z,99287.50
2023-03-26T18:12:10.480Z,99290.98
2023-03-26T18:14:49.777Z,99291.05
2023-03-26T18:17:20.246Z,99291.71
2023-03-26T18:19:54.109Z,99294.45
2023-03-26T18:22:28.245Z,99297.46
2023-03-26T18:25:00.781Z,99298.52
2023-03-26T18:27:39.092Z,99299.96
2023-03-26T18:30:16.278Z,99299.05
2023-03-26T18:33:20.330Z,99305.88
2023-03-26T18:35:54.404Z,99304.91
2023-03-26T18:38:36.697Z,99308.17
2023-03-26T18:41:09.966Z,99304.83
2023-03-26T18:43:44.146Z,99309.95
2023-03-26T18:46:14.031Z,99307.41
2023-03-26T18:48:44.354Z,99311.59
2023-03-26T18:51:16.832Z,99315.91
2023-03-26T18:53:51.264Z,99313.05
2023-03-26T18:56:24.774Z,99319.06
2023-03-26T18:58:53.282Z,99320.91
2023-03-26T19:01:25.756Z,99316.95
2023-03-26T19:03:55.563Z,99315.43
2023-03-26T19:06:24.801Z,99318.27
2023-03-26T19:08:54.407Z,99317.57
2023-03-26T19:11:26.552Z,99315.11
2023-03-26T19:14:03.694Z,99313.81
2023-03-26T19:16:34.197Z,99318.55
2023-03-26T19:19:05.699Z,99319.11
2023-03-26T19:21:34.604Z,99321.56
2023-03-26T19:24:17.751Z,99322.23
2023-03-26T19:26:47.000Z,99320.24
2023-03-26T19:29:23.898Z,99318.21
2023-03-26T19:31:52.783Z,99315.54
2023-03-26T19:34:50.899Z,99314.21
2023-03-26T19:37:30.162Z,99312.33
2023-03-26T19:40:13.284Z,99311.60
2023-03-26T19:42:43.603Z,99307.38
2023-03-26T19:45:18.743Z,99308.23
2023-03-26T19:47:50.082Z,99309.79
2023-03-26T19:50:27.059Z,99306.00
2023-03-26T19:53:17.038Z,99308.21
2023-03-26T19:55:57.516Z,99309.96
2023-03-26T19:58:26.628Z,99310.09
2023-03-26T20:00:56.726Z,99309.09
2023-03-26T20:03:40.583Z,99303.02
2023-03-26T20:06:13.277Z,99305.65
2023-03-26T20:08:47.209Z,99304.56
2023-03-26T20:11:28.032Z,99308.96
2023-03-26T20:14:02.464Z,99309.35
2023-03-26T20:16:33.620Z,99303.72
2023-03-26T20:19:04.887Z,99303.02
2023-03-26T20:21:41.601Z,99303.62
2023-03-26T20:24:18.212Z,99302.57
2023-03-26T20:26:46.859Z,99300.50
2023-03-26T20:29:15.254Z,99302.06
2023-03-26T20:31:43.831Z,99304.03
2023-03-26T20:34:16.496Z,99305.49
2023-03-26T20:36:46.045Z,99308.44
2023-03-26T20:39:14.857Z,99308.86
2023-03-26T20:41:47.883Z,99310.73
2023-03-26T20:44:18.325Z,99311.42
2023-03-26T20:46:48.415Z,99311.52
2023-03-26T20:49:18.143Z,99310.94
2023-03-26T20:51:47.064Z,99309.06
2023-03-26T20:54:17.858Z,99309.84
2023-03-26T20:56:47.951Z,99309.65
2023-03-26T20:59:19.337Z,99312.11
2023-03-26T21:01:50.047Z,99311.63
2023-03-26T21:04:19.352Z,99313.84
2023-03-26T21:06:47.785Z,99308.42
2023-03-26T21:09:24.131Z,99313.98
2023-03-26T21:12:34.399Z,99312.14
2023-03-26T21:15:10.574Z,99313.18
2023-03-26T21:17:51.698Z,99320.20
2023-03-26T21:20:20.444Z,99317.12
2023-03-26T21:23:05.199Z,99317.20
2023-03-26T21:25:42.166Z,99321.48
2023-03-26T21:28:42.321Z,99322.13
2023-03-26T21:31:15.201Z,99327.75
2023-03-26T21:33:44.435Z,99328.88
2023-03-26T21:36:13.699Z,99327.95
2023-03-26T21:38:45.585Z,99331.71
2023-03-26T21:41:23.547Z,99330.98
2023-03-26T21:43:52.636Z,99331.59
2023-03-26T21:46:22.091Z,99335.08
2023-03-26T21:48:51.171Z,99334.05
2023-03-26T21:51:20.023Z,99330.98
2023-03-26T21:53:49.184Z,99330.00
2023-03-26T21:56:29.083Z,99327.77
2023-03-26T21:59:10.671Z,99327.52
2023-03-26T22:01:44.519Z,99328.33
2023-03-26T22:04:13.058Z,99325.88
2023-03-26T22:07:01.067Z,99330.39
2023-03-26T22:09:36.312Z,99325.86
2023-03-26T22:12:05.521Z,99323.16
2023-03-26T22:14:34.518Z,99328.13
2023-03-26T22:17:02.987Z,99323.62
2023-03-26T22:19:31.873Z,99320.85
2023-03-26T22:22:03.121Z,99323.64
2023-03-26T22:24:32.197Z,99320.13
2023-03-26T22:27:03.878Z,99320.70
2023-03-26T22:29:33.588Z,99320.16
2023-03-26T22:32:03.726Z,99326.48
2023-03-26T22:34:35.121Z,99322.48
2023-03-26T22:37:05.886Z,99321.63
2023-03-26T22:39:35.186Z,99324.54
2023-03-26T22:42:05.106Z,99320.33
2023-03-26T22:44:33.614Z,99315.98
2023-03-26T22:47:01.919Z,99314.53
2023-03-26T22:49:31.588Z,99311.33
2023-03-26T22:52:07.357Z,99306.73
2023-03-26T22:54:37.149Z,99312.67
2023-03-26T22:57:05.448Z,99314.94
2023-03-26T22:59:35.710Z,99318.88
2023-03-26T23:02:04.293Z,99314.71
2023-03-26T23:04:32.796Z,99310.45
2023-03-26T23:07:02.036Z,99309.46
2023-03-26T23:09:30.599Z,99306.36
2023-03-26T23:12:01.255Z,99304.26
2023-03-26T23:14:32.547Z,99297.77
2023-03-26T23:17:01.592Z,99298.22
2023-03-26T23:19:34.252Z,99296.67
2023-03-26T23:22:02.586Z,99300.90
2023-03-26T23:24:30.806Z,99303.13
2023-03-26T23:27:00.257Z,99297.40
2023-03-26T23:29:30.217Z,99297.97
2023-03-26T23:32:00.659Z,99298.70
2023-03-26T23:34:29.240Z,99295.55
2023-03-26T23:36:58.243Z,99297.54
2023-03-26T23:39:28.714Z,99298.85
2023-03-26T23:41:56.893Z,99305.17
2023-03-26T23:44:29.613Z,99302.55
2023-03-26T23:47:00.560Z,99303.38
2023-03-26T23:49:29.518Z,99306.63
2023-03-26T23:51:58.258Z,99305.37
2023-03-26T23:54:26.827Z,99302.34
2023-03-26T23:56:57.904Z,99297.70
2023-03-26T23:59:26.657Z,99293.27
